Time;durP1;ratioP1;P1;durP2;ratioP2;P2;SDS_P1;SDS_P2;PMS_P1;PMS_P2;Temp;Humidity;BMP_temperature;BMP_pressure;BME280_temperature;BME280_humidity;BME280_pressure;Samples;Min_cycle;Max_cycle;Signal;HPM_P1;HPM_P2
2022/04/06 00:01:19;;;;;;;17.30;8.57;;;;;;;8.59;49.67;94534.00;4966063;28;20260;-63
2022/04/06 00:03:44;;;;;;;12.07;7.13;;;;;;;8.56;49.29;94535.13;4966970;28;20306;-65
2022/04/06 00:06:10;;;;;;;12.88;7.88;;;;;;;8.55;49.50;94537.88;4931170;29;20290;-66
2022/04/06 00:08:36;;;;;;;10.07;8.27;;;;;;;8.63;49.74;94535.31;4935438;28;20225;-65
2022/04/06 00:11:02;;;;;;;10.95;7.75;;;;;;;8.62;49.86;94538.94;4955111;28;20248;-67
2022/04/06 00:13:28;;;;;;;16.27;8.40;;;;;;;8.38;50.21;94531.66;4962537;28;20236;-65
2022/04/06 00:15:53;;;;;;;8.73;7.27;;;;;;;8.18;50.90;94541.47;4962504;28;20286;-62
2022/04/06 00:18:18;;;;;;;13.10;7.10;;;;;;;8.00;51.21;94532.75;4966563;28;20220;-62
2022/04/06 00:20:44;;;;;;;13.67;8.00;;;;;;;8.00;51.65;94538.00;4957400;28;20216;-63
2022/04/06 00:23:09;;;;;;;12.88;7.95;;;;;;;7.97;51.71;94535.69;4961843;28;20242;-63
2022/04/06 00:25:35;;;;;;;11.37;8.83;;;;;;;7.89;52.33;94534.59;4966397;28;20235;-63
2022/04/06 00:28:00;;;;;;;11.90;7.90;;;;;;;8.06;51.63;94535.59;4964901;28;20239;-62
2022/04/06 00:30:26;;;;;;;13.27;8.13;;;;;;;7.99;52.13;94534.53;4967855;28;20250;-63
2022/04/06 00:32:51;;;;;;;15.77;9.10;;;;;;;7.97;52.01;94539.13;4971221;28;20314;-63
2022/04/06 00:35:29;;;;;;;11.80;8.27;;;;;;;7.98;51.99;94539.94;4961092;28;20192;-63
2022/04/06 00:38:00;;;;;;;11.93;8.70;;;;;;;7.88;52.61;94542.59;4967732;28;20207;-62
2022/04/06 00:40:26;;;;;;;15.57;7.90;;;;;;;7.88;52.29;94546.03;4959612;28;20259;-61
2022/04/06 00:42:53;;;;;;;12.17;7.90;;;;;;;7.88;52.79;94543.41;4965561;28;20220;-61
2022/04/06 00:45:20;;;;;;;9.90;7.72;;;;;;;7.85;52.92;94551.56;4995689;28;20220;-61
2022/04/06 00:47:47;;;;;;;15.53;7.53;;;;;;;7.71;53.50;94560.75;4968626;28;20235;-61
2022/04/06 00:50:12;;;;;;;11.95;8.20;;;;;;;7.86;52.92;94560.28;4957610;28;20216;-66
2022/04/06 00:52:39;;;;;;;9.93;7.93;;;;;;;8.04;52.38;94553.25;4964171;28;20220;-61
2022/04/06 00:55:06;;;;;;;12.03;8.63;;;;;;;8.08;52.67;94551.16;4961373;28;20227;-61
2022/04/06 00:57:32;;;;;;;15.73;8.37;;;;;;;8.09;52.53;94556.25;4959561;28;20270;-61
2022/04/06 00:59:58;;;;;;;16.13;8.77;;;;;;;8.07;52.42;94555.59;4956483;28;20311;-61
2022/04/06 01:02:25;;;;;;;13.90;8.85;;;;;;;8.08;52.06;94546.75;4970870;28;20319;-61
2022/04/06 01:04:50;;;;;;;12.00;7.63;;;;;;;8.02;52.45;94546.50;4958585;28;20224;-63
2022/04/06 01:07:17;;;;;;;11.17;7.87;;;;;;;7.88;52.83;94551.28;4963714;28;20290;-61
2022/04/06 01:09:43;;;;;;;12.27;8.60;;;;;;;7.94;52.77;94558.56;4955938;28;20256;-61
2022/04/06 01:12:08;;;;;;;12.40;8.48;;;;;;;7.65;53.42;94555.28;4958297;28;20239;-62
2022/04/06 01:14:35;;;;;;;12.93;8.60;;;;;;;7.60;53.69;94563.56;4963141;28;20247;-67
2022/04/06 01:17:04;;;;;;;12.83;8.47;;;;;;;7.53;53.93;94556.41;4958266;28;20212;-66
2022/04/06 01:19:31;;;;;;;13.40;8.60;;;;;;;7.42;54.09;94555.63;4960527;28;20229;-64
2022/04/06 01:21:57;;;;;;;19.70;9.50;;;;;;;7.49;54.46;94561.13;4959160;28;20224;-63
2022/04/06 01:24:22;;;;;;;13.67;8.30;;;;;;;7.57;54.14;94560.41;4961669;28;20239;-61
2022/04/06 01:26:48;;;;;;;15.13;8.53;;;;;;;7.51;54.40;94559.16;4960438;28;20236;-61
2022/04/06 01:29:13;;;;;;;14.23;8.80;;;;;;;7.40;54.56;94557.56;4956195;28;20200;-61
2022/04/06 01:31:39;;;;;;;13.00;8.10;;;;;;;7.31;55.50;94547.97;4952775;28;20208;-61
2022/04/06 01:34:04;;;;;;;14.83;8.83;;;;;;;7.30;55.03;94554.19;4964213;28;20224;-61
2022/04/06 01:36:30;;;;;;;10.57;7.73;;;;;;;7.30;54.88;94551.56;4966552;28;20236;-61
2022/04/06 01:38:55;;;;;;;11.43;8.30;;;;;;;7.42;54.53;94546.97;4958026;28;20228;-61
2022/04/06 01:41:21;;;;;;;14.87;8.70;;;;;;;7.32;54.36;94549.59;4961739;28;20296;-64
2022/04/06 01:43:46;;;;;;;14.37;8.33;;;;;;;7.33;54.26;94548.66;4955310;28;20204;-65
2022/04/06 01:46:11;;;;;;;12.10;9.17;;;;;;;7.39;54.11;94548.06;4954121;28;20236;-65
2022/04/06 01:52:12;;;;;;;12.03;8.50;;;;;;;7.21;54.81;94545.38;4964319;28;20256;-64
2022/04/06 01:54:07;;;;;;;11.67;8.10;;;;;;;7.25;54.91;94553.78;4961983;28;20284;-66
2022/04/06 01:56:32;;;;;;;11.83;7.87;;;;;;;7.18;55.18;94552.69;4990905;28;20229;-65
2022/04/06 01:58:57;;;;;;;13.27;8.23;;;;;;;7.27;54.89;94551.81;4963459;28;20208;-65
2022/04/06 02:01:23;;;;;;;12.17;8.43;;;;;;;7.35;54.14;94551.97;4964209;28;20228;-65
2022/04/06 02:03:48;;;;;;;10.73;7.20;;;;;;;7.21;54.54;94547.19;4952997;28;20319;-65
2022/04/06 02:06:14;;;;;;;15.07;8.20;;;;;;;7.13;55.01;94554.91;4963377;28;20240;-65
2022/04/06 02:08:39;;;;;;;11.27;7.97;;;;;;;7.11;54.73;94559.44;4987792;28;20229;-64
2022/04/06 02:11:06;;;;;;;13.23;7.87;;;;;;;7.15;54.37;94560.81;4964203;28;20215;-64
2022/04/06 02:13:32;;;;;;;12.93;7.93;;;;;;;6.99;55.19;94564.84;4963285;28;20208;-65
2022/04/06 02:15:57;;;;;;;12.33;8.23;;;;;;;6.94;55.54;94566.22;4961245;28;20641;-65
2022/04/06 02:18:23;;;;;;;17.90;8.03;;;;;;;6.83;56.15;94565.41;4962848;28;20583;-64
2022/04/06 02:20:49;;;;;;;14.17;8.50;;;;;;;6.86;56.13;94569.53;4963019;28;20231;-65
2022/04/06 02:23:14;;;;;;;14.47;8.40;;;;;;;7.06;55.63;94565.94;4956648;28;20247;-64
2022/04/06 02:25:39;;;;;;;12.47;8.50;;;;;;;6.89;55.70;94569.25;4961062;28;20236;-65
2022/04/06 02:28:05;;;;;;;14.77;9.63;;;;;;;6.74;56.29;94565.47;4989210;28;20236;-65
2022/04/06 02:30:30;;;;;;;14.07;8.70;;;;;;;6.68;56.53;94568.59;4964100;28;20228;-66
2022/04/06 02:32:56;;;;;;;14.03;7.97;;;;;;;6.72;56.02;94568.19;4957256;28;20292;-65
2022/04/06 02:35:21;;;;;;;10.40;8.13;;;;;;;6.73;56.31;94563.78;4960224;28;20210;-65
2022/04/06 02:37:47;;;;;;;13.67;9.00;;;;;;;6.83;55.75;94570.66;4957907;28;20227;-66
2022/04/06 02:40:14;;;;;;;14.40;8.27;;;;;;;6.96;55.43;94580.81;4964773;28;20224;-65
2022/04/06 02:42:40;;;;;;;12.77;8.43;;;;;;;6.72;55.94;94576.03;4965208;28;20219;-66
2022/04/06 02:45:06;;;;;;;13.87;8.87;;;;;;;6.69;56.15;94584.16;4965325;28;20279;-66
2022/04/06 02:47:32;;;;;;;13.03;8.50;;;;;;;6.60;56.43;94580.59;4954246;28;20274;-66
2022/04/06 02:49:57;;;;;;;11.13;8.40;;;;;;;6.71;56.14;94582.22;4952560;28;20220;-61
2022/04/06 02:52:22;;;;;;;15.10;8.50;;;;;;;6.84;55.79;94577.53;4963621;28;20232;-66
2022/04/06 02:54:48;;;;;;;13.43;8.50;;;;;;;6.72;56.17;94585.66;4961836;28;20227;-64
2022/04/06 02:57:13;;;;;;;12.97;9.10;;;;;;;6.31;57.61;94592.81;4954528;28;20232;-63
2022/04/06 02:59:40;;;;;;;12.13;8.00;;;;;;;6.50;56.92;94592.81;4954096;28;20229;-64
2022/04/06 03:02:06;;;;;;;9.80;7.87;;;;;;;6.28;58.12;94595.69;4954483;28;20268;-64
2022/04/06 03:04:31;;;;;;;12.33;8.70;;;;;;;6.35;57.55;94595.00;4964223;28;20212;-64
2022/04/06 03:06:56;;;;;;;11.60;8.30;;;;;;;6.52;57.08;94590.06;4959405;28;20231;-63
2022/04/06 03:09:22;;;;;;;13.60;8.17;;;;;;;6.43;57.36;94602.16;4954309;28;20291;-63
2022/04/06 03:11:47;;;;;;;11.83;7.77;;;;;;;6.55;56.89;94593.25;4951653;28;20235;-63
2022/04/06 03:14:13;;;;;;;17.53;9.53;;;;;;;6.48;57.14;94597.34;4961775;28;20225;-63
2022/04/06 03:16:38;;;;;;;16.20;9.13;;;;;;;6.47;56.94;94598.31;4961533;28;20239;-63
2022/04/06 03:19:04;;;;;;;16.53;8.97;;;;;;;6.35;56.85;94594.19;4956461;28;20225;-62
2022/04/06 03:21:29;;;;;;;21.03;9.00;;;;;;;6.38;56.99;94602.56;4963743;28;20287;-63
2022/04/06 03:23:55;;;;;;;19.13;7.87;;;;;;;6.34;56.21;94605.59;4957760;28;20234;-63
2022/04/06 03:26:20;;;;;;;19.87;8.13;;;;;;;6.24;56.41;94604.75;4956489;28;20236;-63
2022/04/06 03:28:46;;;;;;;17.27;8.20;;;;;;;6.23;55.93;94605.69;4956108;28;20220;-65
2022/04/06 03:31:11;;;;;;;13.57;7.30;;;;;;;6.30;55.52;94604.22;4986529;28;20243;-61
2022/04/06 03:33:37;;;;;;;16.97;7.63;;;;;;;6.27;55.86;94610.53;4955568;28;20256;-60
2022/04/06 03:36:03;;;;;;;10.57;6.87;;;;;;;6.36;55.01;94608.88;4961836;28;20226;-60
2022/04/06 03:38:29;;;;;;;10.50;7.43;;;;;;;6.39;54.79;94606.84;4957183;28;20251;-60
2022/04/06 03:40:54;;;;;;;9.90;6.50;;;;;;;6.42;54.95;94612.75;4967333;28;20220;-62
2022/04/06 03:43:20;;;;;;;13.33;7.23;;;;;;;6.43;55.24;94610.00;4953846;28;20228;-62
2022/04/06 03:45:45;;;;;;;14.83;7.53;;;;;;;6.47;54.81;94607.94;4953519;28;20228;-65
2022/04/06 03:48:11;;;;;;;14.27;7.80;;;;;;;6.44;54.85;94606.41;4963956;28;20315;-64
2022/04/06 03:50:36;;;;;;;13.47;6.90;;;;;;;6.13;55.25;94610.94;4962160;28;20259;-60
2022/04/06 03:53:02;;;;;;;10.50;7.60;;;;;;;6.13;55.74;94614.34;4957017;28;20205;-65
2022/04/06 03:55:27;;;;;;;17.17;8.13;;;;;;;6.10;56.24;94619.84;4961598;28;20220;-66
2022/04/06 03:57:53;;;;;;;17.13;8.67;;;;;;;6.02;57.17;94618.88;4962188;28;20235;-62
2022/04/06 04:00:18;;;;;;;18.67;8.33;;;;;;;5.98;57.30;94628.72;4962647;28;20235;-62
2022/04/06 04:02:45;;;;;;;14.17;7.97;;;;;;;5.92;57.76;94632.69;4961324;28;20311;-62
2022/04/06 04:05:11;;;;;;;11.17;7.67;;;;;;;5.80;57.69;94631.16;4960169;28;20362;-62
2022/04/06 04:07:40;;;;;;;12.93;8.07;;;;;;;5.60;58.50;94632.84;4962267;28;20303;-65
2022/04/06 04:10:07;;;;;;;16.83;8.10;;;;;;;5.72;59.05;94637.00;4956382;28;20228;-65
2022/04/06 04:12:34;;;;;;;18.83;9.90;;;;;;;5.98;57.77;94636.56;4944842;28;20288;-65
2022/04/06 04:15:00;;;;;;;12.87;9.47;;;;;;;5.88;57.88;94641.75;4965220;28;20220;-65
2022/04/06 04:17:25;;;;;;;16.43;9.90;;;;;;;5.76;58.26;94642.78;4960225;28;20224;-66
2022/04/06 04:19:50;;;;;;;19.87;11.07;;;;;;;6.08;57.41;94644.44;4954215;28;20217;-65
2022/04/06 04:22:16;;;;;;;16.17;10.73;;;;;;;6.04;57.37;94651.72;4960298;28;20229;-66
2022/04/06 04:24:41;;;;;;;16.27;9.73;;;;;;;6.06;57.02;94649.78;4958117;28;20298;-65
2022/04/06 04:27:07;;;;;;;15.07;9.97;;;;;;;6.02;57.46;94660.63;4958213;28;20281;-65
2022/04/06 04:29:33;;;;;;;17.23;10.90;;;;;;;5.95;57.54;94647.28;4957052;28;20319;-63
2022/04/06 04:31:58;;;;;;;13.80;10.07;;;;;;;6.06;57.96;94657.59;4960129;28;20212;-60
2022/04/06 04:34:24;;;;;;;12.83;8.93;;;;;;;6.21;57.00;94662.47;4992724;28;20274;-64
2022/04/06 04:36:49;;;;;;;14.97;9.30;;;;;;;6.19;57.00;94666.03;4958918;28;20255;-65
2022/04/06 04:39:15;;;;;;;13.33;9.03;;;;;;;6.04;57.19;94667.38;4956446;28;20243;-66
2022/04/06 04:41:40;;;;;;;16.17;9.93;;;;;;;6.11;57.53;94667.66;4963448;28;20330;-61
2022/04/06 04:44:06;;;;;;;21.73;10.83;;;;;;;6.13;57.61;94671.78;4962398;28;20263;-61
2022/04/06 04:46:31;;;;;;;18.17;10.03;;;;;;;6.21;57.44;94667.69;4967401;28;20252;-61
2022/04/06 04:48:57;;;;;;;18.20;9.87;;;;;;;6.15;57.55;94667.25;4967096;28;20232;-60
2022/04/06 04:51:22;;;;;;;16.20;9.63;;;;;;;6.22;57.64;94674.56;4956119;28;20235;-61
2022/04/06 04:53:47;;;;;;;18.40;10.70;;;;;;;6.24;57.98;94677.88;4963524;28;20228;-61
2022/04/06 04:56:13;;;;;;;16.67;10.53;;;;;;;6.43;57.24;94683.13;4962810;28;20214;-62
2022/04/06 04:58:38;;;;;;;20.03;11.57;;;;;;;6.52;56.34;94690.16;4962815;28;20316;-62
2022/04/06 05:01:04;;;;;;;21.03;11.50;;;;;;;6.66;55.20;94688.13;4970150;28;20240;-62
2022/04/06 05:03:30;;;;;;;18.60;11.67;;;;;;;6.61;55.43;94688.53;4958149;28;20236;-62
2022/04/06 05:05:56;;;;;;;14.87;11.57;;;;;;;6.69;55.69;94698.28;4960932;28;20233;-62
2022/04/06 05:08:22;;;;;;;19.43;12.13;;;;;;;6.73;55.48;94702.28;4957124;28;20212;-61
2022/04/06 05:10:48;;;;;;;16.37;12.03;;;;;;;6.71;54.93;94707.66;4964205;28;20200;-61
2022/04/06 05:13:14;;;;;;;18.47;12.70;;;;;;;6.62;54.92;94711.88;4961921;28;20235;-62
2022/04/06 05:15:41;;;;;;;21.27;12.93;;;;;;;6.64;54.44;94716.97;4960155;28;20221;-61
2022/04/06 05:18:06;;;;;;;19.50;12.60;;;;;;;6.75;54.46;94713.41;4961133;28;20295;-60
2022/04/06 05:20:32;;;;;;;17.17;10.73;;;;;;;6.86;53.95;94715.91;4954010;28;20272;-60
2022/04/06 05:22:58;;;;;;;22.23;11.27;;;;;;;7.00;53.70;94718.13;4983950;28;20215;-61
2022/04/06 05:25:24;;;;;;;21.57;10.70;;;;;;;7.05;53.62;94721.13;4962360;28;20244;-61
2022/04/06 05:27:52;;;;;;;19.07;10.40;;;;;;;7.09;53.20;94719.09;4960903;28;20287;-60
2022/04/06 05:30:22;;;;;;;21.77;10.50;;;;;;;7.14;52.58;94714.28;4969009;28;20263;-63
2022/04/06 05:32:49;;;;;;;13.37;9.47;;;;;;;7.28;52.33;94711.22;4987054;28;20236;-61
2022/04/06 05:35:14;;;;;;;20.10;10.70;;;;;;;7.40;52.09;94717.13;4961299;28;20213;-60
2022/04/06 05:37:41;;;;;;;22.43;11.40;;;;;;;7.28;52.45;94723.47;4955151;28;20205;-60
2022/04/06 05:40:08;;;;;;;18.63;11.73;;;;;;;7.40;52.40;94721.53;4959932;28;20315;-61
2022/04/06 05:42:34;;;;;;;22.90;11.43;;;;;;;7.54;51.97;94720.28;4967549;28;20235;-61
2022/04/06 05:45:00;;;;;;;23.13;11.77;;;;;;;7.65;51.57;94725.38;4957276;28;20244;-60
2022/04/06 05:47:26;;;;;;;15.50;11.77;;;;;;;7.76;51.04;94732.22;4959573;28;20232;-61
2022/04/06 05:49:51;;;;;;;21.33;11.67;;;;;;;7.67;51.62;94731.25;4967242;28;20263;-61
2022/04/06 05:52:17;;;;;;;21.27;12.27;;;;;;;7.67;51.72;94733.88;4965351;28;20270;-62
2022/04/06 05:54:42;;;;;;;20.57;11.60;;;;;;;7.68;51.96;94731.13;4987717;28;20236;-61
2022/04/06 05:57:08;;;;;;;17.40;11.20;;;;;;;7.77;51.27;94737.31;4963166;28;20231;-60
2022/04/06 05:59:33;;;;;;;16.10;10.90;;;;;;;8.03;50.54;94744.56;4965718;28;20224;-62
2022/04/06 06:01:59;;;;;;;19.97;10.90;;;;;;;8.11;50.08;94737.63;4964939;28;20247;-62
2022/04/06 06:04:24;;;;;;;17.67;10.43;;;;;;;8.09;49.94;94731.69;4954245;28;20225;-62
2022/04/06 06:06:50;;;;;;;19.90;11.87;;;;;;;8.18;49.64;94740.50;4953667;28;20242;-61
2022/04/06 06:09:15;;;;;;;22.17;9.73;;;;;;;8.14;49.33;94739.13;4954934;28;20267;-61
2022/04/06 06:11:43;;;;;;;13.07;8.87;;;;;;;8.17;48.97;94744.06;4989026;28;20220;-61
2022/04/06 06:14:09;;;;;;;18.40;9.23;;;;;;;8.28;48.85;94738.66;4961254;28;20212;-62
2022/04/06 06:16:34;;;;;;;14.67;8.90;;;;;;;8.18;48.76;94740.50;4963047;28;20263;-60
2022/04/06 06:19:00;;;;;;;13.83;9.23;;;;;;;8.27;48.71;94747.47;4963419;28;20224;-61
2022/04/06 06:21:27;;;;;;;12.20;7.70;;;;;;;8.43;48.14;94740.84;4953895;28;20229;-62
2022/04/06 06:23:53;;;;;;;14.63;7.87;;;;;;;8.48;48.20;94742.06;4950632;28;20225;-61
2022/04/06 06:26:20;;;;;;;11.03;6.90;;;;;;;8.62;47.74;94735.50;4957578;28;20239;-61
2022/04/06 06:28:45;;;;;;;12.43;8.30;;;;;;;8.69;47.86;94741.81;4953219;28;20223;-61
2022/04/06 06:31:11;;;;;;;14.13;9.27;;;;;;;8.75;47.23;94737.78;4957537;28;20236;-61
2022/04/06 06:33:37;;;;;;;9.37;7.53;;;;;;;8.83;47.23;94735.22;4966337;28;20310;-60
2022/04/06 06:36:02;;;;;;;11.43;7.57;;;;;;;8.83;46.96;94738.66;4964127;28;20339;-60
2022/04/06 06:38:28;;;;;;;9.73;7.40;;;;;;;8.92;47.08;94730.88;4960098;28;20234;-60
2022/04/06 06:40:53;;;;;;;12.80;6.90;;;;;;;9.02;46.85;94734.28;4957643;28;20216;-63
2022/04/06 06:43:19;;;;;;;14.53;7.20;;;;;;;9.15;46.56;94728.66;4950817;28;20449;-63
2022/04/06 06:45:45;;;;;;;11.37;7.10;;;;;;;9.19;46.41;94732.63;4958742;28;20338;-65
2022/04/06 06:48:16;;;;;;;12.23;7.60;;;;;;;9.20;45.63;94732.47;4986289;28;20232;-62
2022/04/06 06:50:42;;;;;;;10.77;7.00;;;;;;;9.28;46.05;94729.09;4945807;28;20224;-66
2022/04/06 06:53:07;;;;;;;9.77;7.20;;;;;;;9.28;46.45;94727.31;4985716;28;20219;-64
2022/04/06 06:55:32;;;;;;;10.83;7.00;;;;;;;9.43;46.15;94722.31;4955691;28;20288;-66
2022/04/06 06:57:58;;;;;;;8.73;7.20;;;;;;;9.49;45.72;94713.88;4961805;28;20224;-66
2022/04/06 07:00:23;;;;;;;10.33;7.47;;;;;;;9.65;45.69;94728.06;4952893;28;20224;-61
2022/04/06 07:02:49;;;;;;;11.00;7.13;;;;;;;9.67;45.17;94715.63;4951443;28;20306;-61
2022/04/06 07:05:15;;;;;;;11.50;7.53;;;;;;;9.78;44.56;94720.59;4961751;28;20299;-66
2022/04/06 07:08:06;;;;;;;13.17;7.90;;;;;;;9.81;44.88;94722.09;4958498;28;20208;-61
2022/04/06 07:10:32;;;;;;;12.73;8.27;;;;;;;9.84;44.91;94722.66;4951608;28;20241;-62
2022/04/06 07:12:58;;;;;;;11.50;7.70;;;;;;;9.87;44.99;94724.13;4975099;28;20244;-60
2022/04/06 07:15:25;;;;;;;11.27;6.97;;;;;;;9.97;44.69;94724.00;4955073;28;20228;-62
2022/04/06 07:17:55;;;;;;;12.80;7.17;;;;;;;10.14;44.20;94728.41;4953702;28;20232;-62
2022/04/06 07:20:22;;;;;;;10.47;6.57;;;;;;;10.10;44.16;94725.25;4954506;28;20332;-62
2022/04/06 07:22:47;;;;;;;10.87;7.20;;;;;;;10.15;44.29;94730.03;4955792;28;20235;-62
2022/04/06 07:25:13;;;;;;;9.83;6.70;;;;;;;10.28;44.08;94727.84;4957405;28;20279;-62
2022/04/06 07:27:39;;;;;;;11.47;6.70;;;;;;;10.34;43.52;94723.75;4987689;28;20232;-62
2022/04/06 07:30:07;;;;;;;11.20;6.67;;;;;;;10.43;42.87;94732.50;4957595;28;20219;-61
2022/04/06 07:32:34;;;;;;;10.90;7.33;;;;;;;10.42;43.25;94726.41;4961347;28;20466;-60
2022/04/06 07:35:00;;;;;;;14.37;8.33;;;;;;;10.47;43.68;94720.69;4953335;28;20204;-65
2022/04/06 07:37:26;;;;;;;14.30;9.13;;;;;;;10.67;43.14;94734.41;4961031;28;20367;-65
2022/04/06 07:39:51;;;;;;;14.33;9.10;;;;;;;10.70;42.76;94720.94;4954872;28;20286;-66
2022/04/06 07:42:16;;;;;;;13.27;8.57;;;;;;;10.70;43.26;94727.03;4958729;28;20224;-63
2022/04/06 07:44:42;;;;;;;12.43;8.70;;;;;;;10.80;43.10;94735.59;4964381;28;20235;-62
2022/04/06 07:47:07;;;;;;;15.33;10.23;;;;;;;10.98;42.59;94724.13;4957594;28;20216;-60
2022/04/06 07:49:33;;;;;;;16.30;9.20;;;;;;;11.11;42.33;94728.94;4942027;28;20216;-62
2022/04/06 07:51:58;;;;;;;13.13;8.83;;;;;;;11.11;41.12;94724.47;4960963;28;20239;-62
2022/04/06 07:54:24;;;;;;;18.03;9.67;;;;;;;10.99;41.45;94726.63;4960439;28;20228;-62
2022/04/06 07:56:49;;;;;;;11.87;8.93;;;;;;;10.99;42.18;94729.25;4963090;28;20294;-64
2022/04/06 07:59:15;;;;;;;15.67;9.00;;;;;;;11.08;42.12;94724.00;4961397;28;20235;-64
2022/04/06 08:01:40;;;;;;;13.83;8.37;;;;;;;11.24;41.35;94724.84;4994009;28;20324;-63
2022/04/06 08:04:06;;;;;;;10.90;7.97;;;;;;;11.31;41.49;94724.19;4965169;28;20227;-64
2022/04/06 08:06:31;;;;;;;16.50;8.23;;;;;;;11.37;41.50;94718.28;4958730;28;20236;-64
2022/04/06 08:08:59;;;;;;;13.17;8.03;;;;;;;11.55;40.18;94713.66;4966144;28;20288;-62
2022/04/06 08:11:24;;;;;;;15.07;8.73;;;;;;;11.48;40.57;94713.50;4967763;28;20232;-62
2022/04/06 08:13:50;;;;;;;12.03;7.43;;;;;;;11.51;40.71;94719.44;4960896;28;20264;-66
2022/04/06 08:16:15;;;;;;;10.13;7.57;;;;;;;11.59;40.30;94716.78;4968839;28;20232;-63
2022/04/06 08:18:41;;;;;;;13.70;6.95;;;;;;;11.59;40.62;94714.16;4968059;28;20286;-63
2022/04/06 08:21:06;;;;;;;11.03;7.03;;;;;;;11.62;40.59;94713.81;4991000;28;20259;-65
2022/04/06 08:23:32;;;;;;;12.00;8.33;;;;;;;11.84;39.94;94722.84;4959691;28;20223;-60
2022/04/06 08:25:58;;;;;;;12.33;7.87;;;;;;;11.89;39.87;94717.94;4957606;28;20229;-59
2022/04/06 08:28:24;;;;;;;11.13;7.72;;;;;;;12.01;39.31;94716.59;4964061;28;20223;-62
2022/04/06 08:30:49;;;;;;;11.18;7.10;;;;;;;12.17;38.78;94726.28;4956416;28;20229;-62
2022/04/06 08:33:15;;;;;;;10.85;7.07;;;;;;;12.12;38.85;94715.44;4969796;28;20227;-60
2022/04/06 08:35:42;;;;;;;11.52;6.45;;;;;;;12.16;38.62;94719.34;4969413;28;20224;-64
2022/04/06 08:38:11;;;;;;;10.25;6.72;;;;;;;12.16;38.93;94714.09;4965912;28;20212;-65
2022/04/06 08:40:37;;;;;;;11.98;6.93;;;;;;;12.27;38.85;94707.63;4960437;28;20212;-64
2022/04/06 08:43:04;;;;;;;13.63;7.13;;;;;;;12.26;38.64;94704.19;4965360;28;20228;-64
2022/04/06 08:45:32;;;;;;;12.60;6.43;;;;;;;12.30;38.46;94709.97;4970494;28;20287;-61
2022/04/06 08:47:59;;;;;;;13.15;6.55;;;;;;;12.35;38.43;94705.00;4959592;28;20236;-67
2022/04/06 08:50:29;;;;;;;13.10;6.57;;;;;;;12.44;38.53;94705.78;4956478;28;20228;-67
2022/04/06 08:52:57;;;;;;;12.45;6.68;;;;;;;12.49;38.34;94695.56;4964138;28;20650;-64
2022/04/06 08:55:22;;;;;;;9.65;6.43;;;;;;;12.54;37.55;94693.22;4993935;28;20217;-63
2022/04/06 08:57:48;;;;;;;11.13;6.75;;;;;;;12.82;37.56;94700.66;4961368;28;20239;-64
2022/04/06 09:00:16;;;;;;;11.07;6.47;;;;;;;12.85;37.44;94692.41;4961706;28;20232;-65
2022/04/06 09:02:42;;;;;;;10.85;6.75;;;;;;;12.89;37.87;94683.16;4961536;28;20228;-64
2022/04/06 09:05:09;;;;;;;10.07;7.10;;;;;;;13.10;37.46;94687.81;4991772;28;20216;-67
2022/04/06 09:07:35;;;;;;;9.23;6.75;;;;;;;13.30;37.26;94688.19;4959093;28;20212;-67
2022/04/06 09:10:01;;;;;;;15.82;7.07;;;;;;;13.41;36.06;94685.13;4964086;28;20216;-62
2022/04/06 09:12:28;;;;;;;10.88;6.45;;;;;;;13.54;34.88;94681.88;4993646;28;20220;-67
2022/04/06 09:15:07;;;;;;;13.05;7.07;;;;;;;13.46;35.07;94678.31;4960455;28;20271;-66
2022/04/06 09:17:43;;;;;;;10.32;6.38;;;;;;;13.68;34.81;94679.28;4957145;28;20378;-66
2022/04/06 09:20:10;;;;;;;8.93;6.63;;;;;;;13.76;33.73;94675.72;4963236;28;20203;-66
2022/04/06 09:22:36;;;;;;;7.20;5.57;;;;;;;13.73;33.29;94672.63;4956628;28;20208;-68
2022/04/06 09:25:05;;;;;;;10.45;6.00;;;;;;;14.12;33.08;94669.78;4964757;28;20599;-67
2022/04/06 09:27:31;;;;;;;12.23;6.05;;;;;;;14.16;32.75;94670.22;4963710;28;20290;-68
2022/04/06 09:29:57;;;;;;;10.60;5.82;;;;;;;14.24;32.92;94659.56;4962479;28;20216;-69
2022/04/06 09:32:23;;;;;;;8.73;5.65;;;;;;;14.39;32.30;94662.19;4965110;28;20220;-66
2022/04/06 09:34:49;;;;;;;8.48;6.20;;;;;;;14.58;32.59;94660.84;4962768;28;20204;-65
2022/04/06 09:37:25;;;;;;;6.80;5.65;;;;;;;14.70;31.44;94661.97;4954214;28;20228;-66
2022/04/06 09:39:51;;;;;;;10.63;5.28;;;;;;;14.79;30.91;94650.31;4971326;28;20225;-66
2022/04/06 09:42:27;;;;;;;11.18;6.25;;;;;;;14.99;30.17;94648.69;4949938;28;20368;-65
2022/04/06 09:47:40;;;;;;;6.53;5.70;;;;;;;15.03;29.33;94641.19;4962775;28;20290;-65
2022/04/06 09:50:15;;;;;;;8.32;5.07;;;;;;;15.21;29.51;94630.97;4956071;28;20204;-65
2022/04/06 09:52:44;;;;;;;6.32;4.50;;;;;;;15.39;29.26;94637.63;4953115;28;20226;-65
2022/04/06 09:55:12;;;;;;;6.70;3.88;;;;;;;15.44;28.59;94625.47;4956621;28;20251;-65
2022/04/06 09:57:47;;;;;;;5.07;3.33;;;;;;;15.66;27.89;94625.44;4952121;28;20561;-65
2022/04/06 10:00:21;;;;;;;6.25;3.38;;;;;;;15.83;28.04;94626.00;4963403;28;20319;-65
2022/04/06 10:03:00;;;;;;;9.02;4.18;;;;;;;16.03;27.29;94621.63;4961967;28;20316;-67
2022/04/06 10:05:29;;;;;;;6.47;4.35;;;;;;;16.09;27.63;94617.38;4958518;28;20236;-66
2022/04/06 10:07:56;;;;;;;5.82;3.72;;;;;;;16.23;27.57;94610.34;4985506;28;20354;-67
2022/04/06 10:10:24;;;;;;;8.13;3.78;;;;;;;16.25;27.45;94601.16;4950574;28;20217;-66
2022/04/06 10:12:51;;;;;;;5.40;3.50;;;;;;;16.36;27.06;94605.09;4956325;28;20271;-65
2022/04/06 10:15:17;;;;;;;6.47;3.55;;;;;;;16.49;26.80;94604.31;4949641;28;20510;-64
2022/04/06 10:17:46;;;;;;;4.28;3.20;;;;;;;16.48;27.09;94600.03;4970368;28;20221;-66
2022/04/06 10:20:27;;;;;;;5.93;3.42;;;;;;;16.69;26.64;94599.91;4957269;28;20208;-63
2022/04/06 10:23:11;;;;;;;5.10;3.13;;;;;;;16.83;26.82;94594.66;4953435;28;20192;-65
2022/04/06 10:25:55;;;;;;;4.70;2.88;;;;;;;16.76;25.38;94587.47;4956549;28;20232;-64
2022/04/06 10:28:22;;;;;;;6.05;3.22;;;;;;;16.77;26.11;94593.63;4956746;28;20241;-65
2022/04/06 10:31:12;;;;;;;9.40;3.65;;;;;;;16.95;26.16;94583.25;4960680;28;20294;-66
2022/04/06 10:33:39;;;;;;;6.88;3.78;;;;;;;17.10;25.88;94577.75;4956019;28;20239;-65
2022/04/06 10:36:17;;;;;;;4.07;3.13;;;;;;;17.22;25.19;94577.16;4956619;28;20317;-63
2022/04/06 10:39:08;;;;;;;4.95;3.17;;;;;;;17.23;25.25;94573.47;4962634;28;20228;-63
2022/04/06 10:41:38;;;;;;;5.13;2.85;;;;;;;17.44;25.41;94573.28;4969833;28;20221;-67
2022/04/06 10:44:03;;;;;;;6.40;2.90;;;;;;;17.52;24.92;94567.75;4957840;28;20211;-67
2022/04/06 10:46:34;;;;;;;4.28;2.85;;;;;;;17.57;24.88;94564.47;4965727;28;20224;-64
2022/04/06 10:49:11;;;;;;;4.65;2.85;;;;;;;17.84;24.64;94562.63;4964456;28;20286;-73
2022/04/06 10:51:44;;;;;;;6.88;2.80;;;;;;;18.01;24.75;94555.00;4971834;28;20224;-65
2022/04/06 10:54:13;;;;;;;4.40;2.95;;;;;;;18.17;24.36;94557.22;4963310;28;20228;-66
2022/04/06 10:56:50;;;;;;;6.25;2.85;;;;;;;18.24;24.67;94551.88;4956185;28;20251;-63
2022/04/06 10:59:23;;;;;;;5.13;3.13;;;;;;;18.24;24.55;94549.22;4962220;28;20208;-67
2022/04/06 11:02:09;;;;;;;10.00;3.50;;;;;;;18.33;24.14;94539.16;4955029;28;20246;-68
2022/04/06 11:04:42;;;;;;;10.18;3.40;;;;;;;18.69;24.18;94533.25;4961960;28;20236;-68
2022/04/06 11:07:08;;;;;;;8.25;3.63;;;;;;;18.79;24.37;94546.94;4957324;28;20303;-67
2022/04/06 11:12:21;;;;;;;3.70;2.88;;;;;;;19.16;23.76;94536.44;4956479;28;20227;-63
2022/04/06 11:15:10;;;;;;;7.07;3.17;;;;;;;19.34;22.62;94539.16;4958340;28;20224;-63
2022/04/06 11:17:48;;;;;;;4.75;3.13;;;;;;;19.16;22.66;94537.28;4953999;28;20419;-68
2022/04/06 11:20:18;;;;;;;6.60;3.17;;;;;;;18.85;23.35;94530.09;4962306;28;20232;-64
2022/04/06 11:22:54;;;;;;;7.10;3.00;;;;;;;19.09;22.84;94525.03;4958735;28;20279;-66
2022/04/06 11:25:23;;;;;;;4.78;2.90;;;;;;;19.23;23.05;94520.41;4956711;28;20236;-62
2022/04/06 11:27:50;;;;;;;2.83;2.42;;;;;;;19.09;23.02;94514.38;4977164;28;20239;-62
2022/04/06 11:30:21;;;;;;;4.75;2.65;;;;;;;19.29;23.23;94507.00;4955582;28;20323;-62
2022/04/06 11:32:55;;;;;;;4.20;2.80;;;;;;;19.52;22.64;94511.75;4947465;28;20253;-62
2022/04/06 11:35:25;;;;;;;3.47;2.60;;;;;;;19.81;22.29;94504.13;4939430;28;20610;-62
2022/04/06 11:37:51;;;;;;;4.40;2.70;;;;;;;20.03;22.39;94501.81;4989187;28;20304;-64
2022/04/06 11:40:20;;;;;;;4.85;2.92;;;;;;;20.27;22.02;94494.75;4952683;28;20234;-66